Terminal Aerodrome Forecast
Issued by NWS Midland/Odessa, TX

Home | Current Version | Previous Version | Text Only | Print | Product List | Glossary On
Versions: 1 2 3 4 5 6 7 8 9 10 11 12 13 14 15 16 17 18 19 20
000
FTUS44 KMAF 281723
TAFMAF
TAF
KMAF 281723Z 2818/2918 11010KT P6SM FEW250
     FM282000 16011KT P6SM SCT250
     FM282200 23012G20KT P6SM BKN250
     FM290100 27010KT P6SM BKN200=

USA.gov is the U.S. government's official web portal to all federal, state and local government web resources and services.